sensor_id;sensor_type;location;lat;lon;timestamp;P1;durP1;ratioP1;P2;durP2;ratioP2
31531;SDS011;23787;52.180;5.288;2022-09-02T00:07:10;252.10;;;232.90;;
31531;SDS011;23787;52.180;5.288;2022-09-02T00:17:10;289.60;;;268.30;;
31531;SDS011;23787;52.180;5.288;2022-09-02T00:22:10;289.60;;;268.30;;
31531;SDS011;23787;52.180;5.288;2022-09-02T00:32:10;310.60;;;287.70;;
31531;SDS011;23787;52.180;5.288;2022-09-02T00:42:10;310.60;;;287.70;;
31531;SDS011;23787;52.180;5.288;2022-09-02T00:52:13;291.40;;;270.50;;
31531;SDS011;23787;52.180;5.288;2022-09-02T00:57:13;291.40;;;270.50;;
31531;SDS011;23787;52.180;5.288;2022-09-02T01:07:11;331.10;;;308.50;;
31531;SDS011;23787;52.180;5.288;2022-09-02T01:12:10;331.10;;;308.50;;
31531;SDS011;23787;52.180;5.288;2022-09-02T01:17:11;336.40;;;311.90;;
31531;SDS011;23787;52.180;5.288;2022-09-02T01:22:15;336.40;;;311.90;;
31531;SDS011;23787;52.180;5.288;2022-09-02T01:42:11;321.70;;;299.00;;
31531;SDS011;23787;52.180;5.288;2022-09-02T01:47:11;345.40;;;322.00;;
31531;SDS011;23787;52.180;5.288;2022-09-02T01:52:11;345.40;;;322.00;;
31531;SDS011;23787;52.180;5.288;2022-09-02T01:57:11;345.40;;;322.00;;
31531;SDS011;23787;52.180;5.288;2022-09-02T02:02:10;338.40;;;315.20;;
31531;SDS011;23787;52.180;5.288;2022-09-02T02:12:10;338.40;;;315.20;;
31531;SDS011;23787;52.180;5.288;2022-09-02T02:17:11;345.80;;;322.20;;
31531;SDS011;23787;52.180;5.288;2022-09-02T02:22:10;345.80;;;322.20;;
31531;SDS011;23787;52.180;5.288;2022-09-02T02:27:10;345.80;;;322.20;;
31531;SDS011;23787;52.180;5.288;2022-09-02T02:37:11;360.00;;;335.50;;
31531;SDS011;23787;52.180;5.288;2022-09-02T02:42:11;360.00;;;335.50;;
31531;SDS011;23787;52.180;5.288;2022-09-02T02:47:10;356.10;;;332.70;;
31531;SDS011;23787;52.180;5.288;2022-09-02T02:52:11;356.10;;;332.70;;
31531;SDS011;23787;52.180;5.288;2022-09-02T02:57:11;356.10;;;332.70;;
31531;SDS011;23787;52.180;5.288;2022-09-02T03:07:10;355.80;;;331.80;;
31531;SDS011;23787;52.180;5.288;2022-09-02T03:12:10;355.80;;;331.80;;
31531;SDS011;23787;52.180;5.288;2022-09-02T03:17:10;350.90;;;327.50;;
31531;SDS011;23787;52.180;5.288;2022-09-02T03:22:10;350.90;;;327.50;;
31531;SDS011;23787;52.180;5.288;2022-09-02T03:27:10;350.90;;;327.50;;
31531;SDS011;23787;52.180;5.288;2022-09-02T03:32:10;343.90;;;320.90;;
31531;SDS011;23787;52.180;5.288;2022-09-02T03:37:10;343.90;;;320.90;;
31531;SDS011;23787;52.180;5.288;2022-09-02T03:42:11;343.90;;;320.90;;
31531;SDS011;23787;52.180;5.288;2022-09-02T03:47:12;365.50;;;340.40;;
31531;SDS011;23787;52.180;5.288;2022-09-02T04:07:10;355.50;;;331.90;;
31531;SDS011;23787;52.180;5.288;2022-09-02T04:12:10;355.50;;;331.90;;
31531;SDS011;23787;52.180;5.288;2022-09-02T04:17:10;367.60;;;343.50;;
31531;SDS011;23787;52.180;5.288;2022-09-02T04:32:10;331.30;;;310.30;;
31531;SDS011;23787;52.180;5.288;2022-09-02T04:37:10;331.30;;;310.30;;
31531;SDS011;23787;52.180;5.288;2022-09-02T04:42:10;331.30;;;310.30;;
31531;SDS011;23787;52.180;5.288;2022-09-02T04:52:10;351.00;;;328.20;;
31531;SDS011;23787;52.180;5.288;2022-09-02T04:57:11;351.00;;;328.20;;
31531;SDS011;23787;52.180;5.288;2022-09-02T05:17:10;352.80;;;329.20;;
31531;SDS011;23787;52.180;5.288;2022-09-02T05:22:10;352.80;;;329.20;;
31531;SDS011;23787;52.180;5.288;2022-09-02T05:27:11;352.80;;;329.20;;
31531;SDS011;23787;52.180;5.288;2022-09-02T05:32:12;357.10;;;333.90;;
31531;SDS011;23787;52.180;5.288;2022-09-02T05:37:10;357.10;;;333.90;;
31531;SDS011;23787;52.180;5.288;2022-09-02T05:47:11;359.60;;;336.20;;
31531;SDS011;23787;52.180;5.288;2022-09-02T05:52:12;359.60;;;336.20;;
31531;SDS011;23787;52.180;5.288;2022-09-02T06:02:12;367.90;;;343.00;;
31531;SDS011;23787;52.180;5.288;2022-09-02T06:07:11;367.90;;;343.00;;
31531;SDS011;23787;52.180;5.288;2022-09-02T06:17:11;350.00;;;327.30;;
31531;SDS011;23787;52.180;5.288;2022-09-02T06:22:10;350.00;;;327.30;;
31531;SDS011;23787;52.180;5.288;2022-09-02T06:27:10;350.00;;;327.30;;
31531;SDS011;23787;52.180;5.288;2022-09-02T06:32:11;365.50;;;341.90;;
31531;SDS011;23787;52.180;5.288;2022-09-02T06:37:10;365.50;;;341.90;;
31531;SDS011;23787;52.180;5.288;2022-09-02T06:42:11;365.50;;;341.90;;
31531;SDS011;23787;52.180;5.288;2022-09-02T06:47:10;352.90;;;328.70;;
31531;SDS011;23787;52.180;5.288;2022-09-02T06:52:12;352.90;;;328.70;;
31531;SDS011;23787;52.180;5.288;2022-09-02T06:57:11;352.90;;;328.70;;
31531;SDS011;23787;52.180;5.288;2022-09-02T07:02:11;336.20;;;312.70;;
31531;SDS011;23787;52.180;5.288;2022-09-02T07:07:10;336.20;;;312.70;;
31531;SDS011;23787;52.180;5.288;2022-09-02T07:12:11;336.20;;;312.70;;
31531;SDS011;23787;52.180;5.288;2022-09-02T07:17:14;273.30;;;252.40;;
31531;SDS011;23787;52.180;5.288;2022-09-02T07:22:10;273.30;;;252.40;;
31531;SDS011;23787;52.180;5.288;2022-09-02T07:27:11;273.30;;;252.40;;
31531;SDS011;23787;52.180;5.288;2022-09-02T07:32:10;173.20;;;159.40;;
31531;SDS011;23787;52.180;5.288;2022-09-02T07:37:11;173.20;;;159.40;;
31531;SDS011;23787;52.180;5.288;2022-09-02T07:42:11;173.20;;;159.40;;
31531;SDS011;23787;52.180;5.288;2022-09-02T07:47:11;125.60;;;115.40;;
31531;SDS011;23787;52.180;5.288;2022-09-02T07:52:10;125.60;;;115.40;;
31531;SDS011;23787;52.180;5.288;2022-09-02T07:57:11;125.60;;;115.40;;
31531;SDS011;23787;52.180;5.288;2022-09-02T08:02:11;68.60;;;62.30;;
31531;SDS011;23787;52.180;5.288;2022-09-02T08:07:11;68.60;;;62.30;;
31531;SDS011;23787;52.180;5.288;2022-09-02T08:12:11;68.60;;;62.30;;
31531;SDS011;23787;52.180;5.288;2022-09-02T08:17:11;77.50;;;70.90;;
31531;SDS011;23787;52.180;5.288;2022-09-02T08:22:11;77.50;;;70.90;;
31531;SDS011;23787;52.180;5.288;2022-09-02T08:27:11;77.50;;;70.90;;
31531;SDS011;23787;52.180;5.288;2022-09-02T08:32:11;68.20;;;62.10;;
31531;SDS011;23787;52.180;5.288;2022-09-02T08:37:11;68.20;;;62.10;;
31531;SDS011;23787;52.180;5.288;2022-09-02T08:47:14;41.30;;;37.50;;
31531;SDS011;23787;52.180;5.288;2022-09-02T08:52:17;41.30;;;37.50;;
31531;SDS011;23787;52.180;5.288;2022-09-02T08:57:11;41.30;;;37.50;;
31531;SDS011;23787;52.180;5.288;2022-09-02T09:02:20;36.70;;;33.90;;
31531;SDS011;23787;52.180;5.288;2022-09-02T09:07:19;36.70;;;33.90;;
31531;SDS011;23787;52.180;5.288;2022-09-02T09:12:14;36.70;;;33.90;;
31531;SDS011;23787;52.180;5.288;2022-09-02T09:17:16;28.30;;;25.70;;
31531;SDS011;23787;52.180;5.288;2022-09-02T09:22:11;28.30;;;25.70;;
31531;SDS011;23787;52.180;5.288;2022-09-02T09:32:18;20.30;;;18.50;;
31531;SDS011;23787;52.180;5.288;2022-09-02T09:37:26;20.30;;;18.50;;
31531;SDS011;23787;52.180;5.288;2022-09-02T09:42:12;20.30;;;18.50;;
31531;SDS011;23787;52.180;5.288;2022-09-02T09:47:16;15.00;;;13.80;;
31531;SDS011;23787;52.180;5.288;2022-09-02T09:52:21;15.00;;;13.80;;
31531;SDS011;23787;52.180;5.288;2022-09-02T09:57:15;15.00;;;13.80;;
31531;SDS011;23787;52.180;5.288;2022-09-02T10:02:19;13.50;;;12.20;;
31531;SDS011;23787;52.180;5.288;2022-09-02T10:07:11;13.50;;;12.20;;
31531;SDS011;23787;52.180;5.288;2022-09-02T10:12:12;13.50;;;12.20;;
31531;SDS011;23787;52.180;5.288;2022-09-02T10:17:19;20.20;;;18.30;;
31531;SDS011;23787;52.180;5.288;2022-09-02T10:27:14;20.20;;;18.30;;
31531;SDS011;23787;52.180;5.288;2022-09-02T10:32:22;17.70;;;16.10;;
31531;SDS011;23787;52.180;5.288;2022-09-02T10:37:16;17.70;;;16.10;;
31531;SDS011;23787;52.180;5.288;2022-09-02T10:42:15;17.70;;;16.10;;
31531;SDS011;23787;52.180;5.288;2022-09-02T10:47:17;13.40;;;12.30;;
31531;SDS011;23787;52.180;5.288;2022-09-02T10:52:26;13.40;;;12.30;;
31531;SDS011;23787;52.180;5.288;2022-09-02T10:57:14;13.40;;;12.30;;
31531;SDS011;23787;52.180;5.288;2022-09-02T11:02:13;12.60;;;11.50;;
31531;SDS011;23787;52.180;5.288;2022-09-02T11:07:15;12.60;;;11.50;;
31531;SDS011;23787;52.180;5.288;2022-09-02T11:12:14;12.60;;;11.50;;
31531;SDS011;23787;52.180;5.288;2022-09-02T11:17:18;11.90;;;10.80;;
31531;SDS011;23787;52.180;5.288;2022-09-02T11:22:18;11.90;;;10.80;;
31531;SDS011;23787;52.180;5.288;2022-09-02T11:27:16;11.90;;;10.80;;
31531;SDS011;23787;52.180;5.288;2022-09-02T11:32:14;11.70;;;10.60;;
31531;SDS011;23787;52.180;5.288;2022-09-02T11:37:23;11.70;;;10.60;;
31531;SDS011;23787;52.180;5.288;2022-09-02T11:42:21;11.70;;;10.60;;
31531;SDS011;23787;52.180;5.288;2022-09-02T11:52:23;11.70;;;10.60;;
31531;SDS011;23787;52.180;5.288;2022-09-02T11:57:14;11.70;;;10.60;;
31531;SDS011;23787;52.180;5.288;2022-09-02T12:02:11;11.00;;;10.00;;
31531;SDS011;23787;52.180;5.288;2022-09-02T12:07:21;11.00;;;10.00;;
31531;SDS011;23787;52.180;5.288;2022-09-02T12:17:32;13.20;;;12.20;;
31531;SDS011;23787;52.180;5.288;2022-09-02T12:27:22;13.20;;;12.20;;
31531;SDS011;23787;52.180;5.288;2022-09-02T12:42:19;11.60;;;10.60;;
31531;SDS011;23787;52.180;5.288;2022-09-02T12:47:23;9.80;;;9.00;;
31531;SDS011;23787;52.180;5.288;2022-09-02T12:52:12;9.80;;;9.00;;
31531;SDS011;23787;52.180;5.288;2022-09-02T12:57:11;9.80;;;9.00;;
31531;SDS011;23787;52.180;5.288;2022-09-02T13:02:18;13.30;;;12.20;;
31531;SDS011;23787;52.180;5.288;2022-09-02T13:07:30;13.30;;;12.20;;
31531;SDS011;23787;52.180;5.288;2022-09-02T13:17:20;10.80;;;9.90;;
31531;SDS011;23787;52.180;5.288;2022-09-02T13:22:28;10.80;;;9.90;;
31531;SDS011;23787;52.180;5.288;2022-09-02T13:27:19;10.80;;;9.90;;
31531;SDS011;23787;52.180;5.288;2022-09-02T13:32:12;12.10;;;11.00;;
31531;SDS011;23787;52.180;5.288;2022-09-02T13:37:29;12.10;;;11.00;;
31531;SDS011;23787;52.180;5.288;2022-09-02T13:47:13;14.20;;;13.10;;
31531;SDS011;23787;52.180;5.288;2022-09-02T13:52:15;14.20;;;13.10;;
31531;SDS011;23787;52.180;5.288;2022-09-02T13:57:16;14.20;;;13.10;;
31531;SDS011;23787;52.180;5.288;2022-09-02T14:02:16;10.80;;;9.70;;
31531;SDS011;23787;52.180;5.288;2022-09-02T14:07:13;10.80;;;9.70;;
31531;SDS011;23787;52.180;5.288;2022-09-02T14:12:11;10.80;;;9.70;;
31531;SDS011;23787;52.180;5.288;2022-09-02T14:17:16;15.60;;;14.40;;
31531;SDS011;23787;52.180;5.288;2022-09-02T14:22:20;15.60;;;14.40;;
31531;SDS011;23787;52.180;5.288;2022-09-02T14:27:16;15.60;;;14.40;;
31531;SDS011;23787;52.180;5.288;2022-09-02T14:32:13;12.80;;;11.90;;
31531;SDS011;23787;52.180;5.288;2022-09-02T14:37:15;12.80;;;11.90;;
31531;SDS011;23787;52.180;5.288;2022-09-02T14:42:11;12.80;;;11.90;;
31531;SDS011;23787;52.180;5.288;2022-09-02T14:47:13;7.40;;;6.80;;
31531;SDS011;23787;52.180;5.288;2022-09-02T14:52:15;7.40;;;6.80;;
31531;SDS011;23787;52.180;5.288;2022-09-02T14:57:20;7.40;;;6.80;;
31531;SDS011;23787;52.180;5.288;2022-09-02T15:02:20;8.90;;;7.80;;
31531;SDS011;23787;52.180;5.288;2022-09-02T15:07:11;8.90;;;7.80;;
31531;SDS011;23787;52.180;5.288;2022-09-02T15:12:11;8.90;;;7.80;;
31531;SDS011;23787;52.180;5.288;2022-09-02T15:17:14;13.60;;;12.50;;
31531;SDS011;23787;52.180;5.288;2022-09-02T15:22:11;13.60;;;12.50;;
31531;SDS011;23787;52.180;5.288;2022-09-02T15:27:12;13.60;;;12.50;;
31531;SDS011;23787;52.180;5.288;2022-09-02T15:32:11;11.70;;;10.70;;
31531;SDS011;23787;52.180;5.288;2022-09-02T15:37:11;11.70;;;10.70;;
31531;SDS011;23787;52.180;5.288;2022-09-02T15:47:11;10.50;;;9.70;;
31531;SDS011;23787;52.180;5.288;2022-09-02T15:52:11;10.50;;;9.70;;
31531;SDS011;23787;52.180;5.288;2022-09-02T15:57:11;10.50;;;9.70;;
31531;SDS011;23787;52.180;5.288;2022-09-02T16:02:11;12.30;;;11.30;;
31531;SDS011;23787;52.180;5.288;2022-09-02T16:07:58;unknown;;;unknown;;
31531;SDS011;23787;52.180;5.288;2022-09-02T16:12:57;unknown;;;unknown;;
31531;SDS011;23787;52.180;5.288;2022-09-02T16:17:58;15.00;;;13.70;;
31531;SDS011;23787;52.180;5.288;2022-09-02T16:22:57;15.00;;;13.70;;
31531;SDS011;23787;52.180;5.288;2022-09-02T16:27:58;15.00;;;13.70;;
31531;SDS011;23787;52.180;5.288;2022-09-02T16:32:58;12.40;;;11.10;;
31531;SDS011;23787;52.180;5.288;2022-09-02T16:37:57;12.40;;;11.10;;
31531;SDS011;23787;52.180;5.288;2022-09-02T16:42:57;12.40;;;11.10;;
31531;SDS011;23787;52.180;5.288;2022-09-02T16:47:57;17.10;;;15.60;;
31531;SDS011;23787;52.180;5.288;2022-09-02T16:57:58;17.10;;;15.60;;
31531;SDS011;23787;52.180;5.288;2022-09-02T17:07:58;11.70;;;10.80;;
31531;SDS011;23787;52.180;5.288;2022-09-02T17:12:58;11.70;;;10.80;;
31531;SDS011;23787;52.180;5.288;2022-09-02T17:17:58;12.70;;;11.50;;
31531;SDS011;23787;52.180;5.288;2022-09-02T17:22:58;12.70;;;11.50;;
31531;SDS011;23787;52.180;5.288;2022-09-02T17:27:58;12.70;;;11.50;;
31531;SDS011;23787;52.180;5.288;2022-09-02T17:32:58;19.40;;;17.90;;
31531;SDS011;23787;52.180;5.288;2022-09-02T17:37:58;19.40;;;17.90;;
31531;SDS011;23787;52.180;5.288;2022-09-02T17:42:58;19.40;;;17.90;;
31531;SDS011;23787;52.180;5.288;2022-09-02T17:47:58;20.70;;;18.90;;
31531;SDS011;23787;52.180;5.288;2022-09-02T17:48:23;20.70;;;18.90;;
31531;SDS011;23787;52.180;5.288;2022-09-02T17:52:57;20.70;;;18.90;;
31531;SDS011;23787;52.180;5.288;2022-09-02T18:03:07;16.80;;;15.30;;
31531;SDS011;23787;52.180;5.288;2022-09-02T18:08:04;16.80;;;15.30;;
31531;SDS011;23787;52.180;5.288;2022-09-02T18:13:02;16.80;;;15.30;;
31531;SDS011;23787;52.180;5.288;2022-09-02T18:17:58;16.60;;;15.30;;
31531;SDS011;23787;52.180;5.288;2022-09-02T18:23:09;16.60;;;15.30;;
31531;SDS011;23787;52.180;5.288;2022-09-02T18:28:05;16.60;;;15.30;;
31531;SDS011;23787;52.180;5.288;2022-09-02T18:33:09;16.70;;;15.30;;
31531;SDS011;23787;52.180;5.288;2022-09-02T18:38:02;16.70;;;15.30;;
31531;SDS011;23787;52.180;5.288;2022-09-02T18:43:02;16.70;;;15.30;;
31531;SDS011;23787;52.180;5.288;2022-09-02T18:48:01;19.30;;;17.30;;
31531;SDS011;23787;52.180;5.288;2022-09-02T18:58:01;19.30;;;17.30;;
31531;SDS011;23787;52.180;5.288;2022-09-02T19:02:59;21.50;;;19.30;;
31531;SDS011;23787;52.180;5.288;2022-09-02T19:08:00;21.50;;;19.30;;
31531;SDS011;23787;52.180;5.288;2022-09-02T19:12:58;21.50;;;19.30;;
31531;SDS011;23787;52.180;5.288;2022-09-02T19:27:58;31.40;;;28.50;;
31531;SDS011;23787;52.180;5.288;2022-09-02T19:32:58;30.90;;;28.00;;
31531;SDS011;23787;52.180;5.288;2022-09-02T19:37:58;30.90;;;28.00;;
31531;SDS011;23787;52.180;5.288;2022-09-02T19:42:58;30.90;;;28.00;;
31531;SDS011;23787;52.180;5.288;2022-09-02T19:47:58;31.50;;;29.00;;
31531;SDS011;23787;52.180;5.288;2022-09-02T19:52:58;31.50;;;29.00;;
31531;SDS011;23787;52.180;5.288;2022-09-02T19:57:58;31.50;;;29.00;;
31531;SDS011;23787;52.180;5.288;2022-09-02T20:02:58;37.70;;;34.00;;
31531;SDS011;23787;52.180;5.288;2022-09-02T20:12:58;37.70;;;34.00;;
31531;SDS011;23787;52.180;5.288;2022-09-02T20:18:06;40.50;;;37.20;;
31531;SDS011;23787;52.180;5.288;2022-09-02T20:22:58;40.50;;;37.20;;
31531;SDS011;23787;52.180;5.288;2022-09-02T20:32:59;50.00;;;45.70;;
31531;SDS011;23787;52.180;5.288;2022-09-02T20:38:05;50.00;;;45.70;;
31531;SDS011;23787;52.180;5.288;2022-09-02T20:48:04;53.00;;;48.10;;
31531;SDS011;23787;52.180;5.288;2022-09-02T21:08:00;62.00;;;56.50;;
31531;SDS011;23787;52.180;5.288;2022-09-02T21:13:06;62.00;;;56.50;;
31531;SDS011;23787;52.180;5.288;2022-09-02T21:18:02;84.10;;;77.20;;
31531;SDS011;23787;52.180;5.288;2022-09-02T21:22:59;84.10;;;77.20;;
31531;SDS011;23787;52.180;5.288;2022-09-02T21:28:04;84.10;;;77.20;;
31531;SDS011;23787;52.180;5.288;2022-09-02T21:38:02;83.90;;;76.30;;
31531;SDS011;23787;52.180;5.288;2022-09-02T21:48:09;80.70;;;73.80;;
31531;SDS011;23787;52.180;5.288;2022-09-02T21:58:07;86.20;;;79.20;;
31531;SDS011;23787;52.180;5.288;2022-09-02T22:08:02;86.20;;;79.20;;
31531;SDS011;23787;52.180;5.288;2022-09-02T22:12:58;86.20;;;79.20;;
31531;SDS011;23787;52.180;5.288;2022-09-02T22:18:03;103.00;;;94.40;;
31531;SDS011;23787;52.180;5.288;2022-09-02T22:28:03;111.10;;;101.80;;
31531;SDS011;23787;52.180;5.288;2022-09-02T22:33:03;111.10;;;101.80;;
31531;SDS011;23787;52.180;5.288;2022-09-02T22:43:04;106.90;;;98.00;;
31531;SDS011;23787;52.180;5.288;2022-09-02T22:52:58;106.90;;;98.00;;
31531;SDS011;23787;52.180;5.288;2022-09-02T22:58:06;128.50;;;118.70;;
31531;SDS011;23787;52.180;5.288;2022-09-02T23:07:58;128.50;;;118.70;;
31531;SDS011;23787;52.180;5.288;2022-09-02T23:18:06;145.20;;;133.20;;
31531;SDS011;23787;52.180;5.288;2022-09-02T23:23:07;145.20;;;133.20;;
31531;SDS011;23787;52.180;5.288;2022-09-02T23:28:03;151.50;;;139.50;;
31531;SDS011;23787;52.180;5.288;2022-09-02T23:33:05;151.50;;;139.50;;
31531;SDS011;23787;52.180;5.288;2022-09-02T23:38:07;151.50;;;139.50;;
31531;SDS011;23787;52.180;5.288;2022-09-02T23:42:58;149.50;;;136.50;;
31531;SDS011;23787;52.180;5.288;2022-09-02T23:48:08;149.50;;;136.50;;
31531;SDS011;23787;52.180;5.288;2022-09-02T23:53:05;149.50;;;136.50;;
31531;SDS011;23787;52.180;5.288;2022-09-02T23:58:06;149.50;;;137.60;;
